createdAt,value
2018-07-09T00:01:42.027Z,25.40
2018-07-09T00:04:14.083Z,25.10
2018-07-09T00:06:45.850Z,24.90
2018-07-09T00:09:17.820Z,24.70
2018-07-09T00:11:49.629Z,24.50
2018-07-09T00:14:20.958Z,24.40
2018-07-09T00:16:53.182Z,24.20
2018-07-09T00:19:25.043Z,24.10
2018-07-09T00:21:56.678Z,24.00
2018-07-09T00:24:28.278Z,23.80
2018-07-09T00:26:59.565Z,23.70
2018-07-09T00:29:31.047Z,23.70
2018-07-09T00:32:02.432Z,23.60
2018-07-09T00:34:34.158Z,23.60
2018-07-09T00:37:05.671Z,23.50
2018-07-09T00:39:37.994Z,23.40
2018-07-09T00:42:10.219Z,23.30
2018-07-09T00:44:42.675Z,23.30
2018-07-09T00:47:14.504Z,23.20
2018-07-09T00:49:46.172Z,23.10
2018-07-09T00:52:18.095Z,23.10
2018-07-09T00:54:49.761Z,22.90
2018-07-09T00:57:22.215Z,22.80
2018-07-09T00:59:53.960Z,22.70
2018-07-09T01:02:25.615Z,22.60
2018-07-09T01:04:57.315Z,22.50
2018-07-09T01:07:29.022Z,22.50
2018-07-09T01:10:00.466Z,22.40
2018-07-09T01:12:31.979Z,22.40
2018-07-09T01:15:04.120Z,22.30
2018-07-09T01:17:36.019Z,22.30
2018-07-09T01:20:07.932Z,22.10
2018-07-09T01:22:39.496Z,22.00
2018-07-09T01:25:11.123Z,21.80
2018-07-09T01:27:43.293Z,21.80
2018-07-09T01:30:16.344Z,21.70
2018-07-09T01:32:47.892Z,21.60
2018-07-09T01:35:19.593Z,21.50
2018-07-09T01:37:52.195Z,21.50
2018-07-09T01:40:23.971Z,21.30
2018-07-09T01:42:55.387Z,21.30
2018-07-09T01:45:27.126Z,21.20
2018-07-09T01:47:59.007Z,21.10
2018-07-09T01:50:30.603Z,21.00
2018-07-09T01:53:02.182Z,21.00
2018-07-09T01:55:33.805Z,21.00
2018-07-09T01:58:05.603Z,20.90
2018-07-09T02:00:39.154Z,20.80
2018-07-09T02:03:11.105Z,20.60
2018-07-09T02:05:42.535Z,20.60
2018-07-09T02:08:14.721Z,20.50
2018-07-09T02:10:47.798Z,20.40
2018-07-09T02:13:19.408Z,20.30
2018-07-09T02:15:51.225Z,20.30
2018-07-09T02:18:23.487Z,20.20
2018-07-09T02:20:54.873Z,20.20
2018-07-09T02:23:26.769Z,20.10
2018-07-09T02:25:58.887Z,20.10
2018-07-09T02:28:30.344Z,20.00
2018-07-09T02:31:02.048Z,20.10
2018-07-09T02:33:33.998Z,20.10
2018-07-09T02:36:05.450Z,20.00
2018-07-09T02:38:36.839Z,19.90
2018-07-09T02:41:08.387Z,19.80
2018-07-09T02:50:00.359Z,19.70
2018-07-09T02:52:31.537Z,19.70
2018-07-09T02:55:02.993Z,19.70
2018-07-09T02:57:34.594Z,19.70
2018-07-09T03:00:06.222Z,19.80
2018-07-09T04:08:56.915Z,18.90
2018-07-09T04:11:28.216Z,18.90
2018-07-09T04:13:59.606Z,19.10
2018-07-09T04:16:30.608Z,19.20
2018-07-09T04:19:02.992Z,19.40
2018-07-09T04:21:34.606Z,19.30
2018-07-09T04:24:05.533Z,19.10
2018-07-09T04:26:36.572Z,19.20
2018-07-09T04:29:07.618Z,19.20
2018-07-09T04:31:38.765Z,19.10
2018-07-09T04:34:09.863Z,19.10
2018-07-09T04:36:41.118Z,19.10
2018-07-09T04:39:12.385Z,19.10
2018-07-09T04:41:44.261Z,18.90
2018-07-09T04:44:15.473Z,18.80
2018-07-09T04:46:46.738Z,18.70
2018-07-09T04:49:17.921Z,18.50
2018-07-09T04:51:49.447Z,18.40
2018-07-09T04:54:20.954Z,18.30
2018-07-09T04:59:22.153Z,18.10
2018-07-09T05:01:53.176Z,18.00
2018-07-09T05:04:24.696Z,18.10
2018-07-09T05:06:55.784Z,18.00
2018-07-09T05:09:27.367Z,18.00
2018-07-09T05:11:58.597Z,17.90
2018-07-09T05:14:29.803Z,17.90
2018-07-09T05:17:00.849Z,17.90
2018-07-09T05:19:32.308Z,17.90
2018-07-09T05:22:03.554Z,17.80
2018-07-09T05:24:34.618Z,17.80
2018-07-09T05:27:06.069Z,17.70
2018-07-09T05:29:37.307Z,17.70
2018-07-09T05:32:09.113Z,17.60
2018-07-09T05:34:40.530Z,17.60
2018-07-09T05:37:11.952Z,17.70
2018-07-09T05:39:43.608Z,17.70
2018-07-09T05:42:15.577Z,17.70
2018-07-09T05:44:47.309Z,17.70
2018-07-09T05:47:19.066Z,17.50
2018-07-09T05:49:53.337Z,17.50
2018-07-09T05:52:25.177Z,17.40
2018-07-09T05:54:56.885Z,17.30
2018-07-09T05:59:59.209Z,17.20
2018-07-09T06:02:30.341Z,17.00
2018-07-09T06:05:01.544Z,17.00
2018-07-09T06:07:32.721Z,16.90
2018-07-09T06:10:04.259Z,17.00
2018-07-09T06:12:35.768Z,16.90
2018-07-09T06:15:07.303Z,16.90
2018-07-09T06:17:38.374Z,16.80
2018-07-09T06:20:09.777Z,16.80
2018-07-09T06:22:40.947Z,16.70
2018-07-09T06:25:12.497Z,16.60
2018-07-09T06:27:43.456Z,16.50
2018-07-09T06:30:14.542Z,16.40
2018-07-09T06:32:45.671Z,16.40
2018-07-09T06:35:17.035Z,16.30
2018-07-09T06:37:48.244Z,16.20
2018-07-09T06:40:19.433Z,16.20
2018-07-09T06:42:50.829Z,16.10
2018-07-09T06:45:22.975Z,16.10
2018-07-09T06:47:54.732Z,16.10
2018-07-09T06:50:26.201Z,16.00
2018-07-09T06:52:57.680Z,16.00
2018-07-09T06:55:29.180Z,15.90
2018-07-09T06:58:00.704Z,15.80
2018-07-09T07:00:31.739Z,15.70
2018-07-09T07:03:02.989Z,15.70
2018-07-09T07:05:34.756Z,15.60
2018-07-09T07:08:05.693Z,15.70
2018-07-09T07:10:37.010Z,15.70
2018-07-09T07:13:08.193Z,15.60
2018-07-09T07:15:39.186Z,15.60
2018-07-09T07:18:10.813Z,15.60
2018-07-09T07:20:42.107Z,15.60
2018-07-09T07:23:13.401Z,15.70
2018-07-09T07:25:44.316Z,15.70
2018-07-09T07:28:15.235Z,15.70
2018-07-09T07:33:16.384Z,15.40
2018-07-09T07:35:47.992Z,15.30
2018-07-09T07:38:19.460Z,15.20
2018-07-09T07:40:50.610Z,15.20
2018-07-09T07:43:21.700Z,15.20
2018-07-09T07:45:52.913Z,15.20
2018-07-09T07:48:24.153Z,15.20
2018-07-09T07:50:55.921Z,15.20
2018-07-09T07:53:27.432Z,15.20
2018-07-09T07:55:58.796Z,15.20
2018-07-09T07:58:30.472Z,15.30
2018-07-09T08:01:02.040Z,15.20
2018-07-09T08:03:33.560Z,15.20
2018-07-09T08:06:05.858Z,15.30
2018-07-09T08:08:37.658Z,15.20
2018-07-09T08:11:11.223Z,15.20
2018-07-09T08:13:40.581Z,15.10
2018-07-09T08:16:12.507Z,15.00
2018-07-09T08:18:44.093Z,14.80
2018-07-09T08:21:15.544Z,14.70
2018-07-09T08:23:46.993Z,14.60
2018-07-09T08:26:18.858Z,14.60
2018-07-09T08:28:50.416Z,14.60
2018-07-09T08:31:21.890Z,14.50
2018-07-09T08:33:53.430Z,14.40
2018-07-09T08:36:25.086Z,14.30
2018-07-09T08:38:56.657Z,14.20
2018-07-09T08:41:28.002Z,14.20
2018-07-09T08:43:59.543Z,14.30
2018-07-09T08:46:30.880Z,14.40
2018-07-09T08:49:02.357Z,14.60
2018-07-09T08:51:34.172Z,14.80
2018-07-09T08:54:05.895Z,14.80
2018-07-09T08:56:37.809Z,14.80
2018-07-09T08:59:09.559Z,14.70
2018-07-09T09:01:41.265Z,14.70
2018-07-09T09:04:12.754Z,14.70
2018-07-09T09:06:44.217Z,14.70
2018-07-09T09:09:15.750Z,14.60
2018-07-09T09:11:47.654Z,14.50
2018-07-09T09:14:19.442Z,14.60
2018-07-09T09:16:51.297Z,14.60
2018-07-09T09:19:23.140Z,14.50
2018-07-09T09:21:54.694Z,14.40
2018-07-09T09:24:26.433Z,14.40
2018-07-09T09:26:57.868Z,14.50
2018-07-09T09:29:29.417Z,14.50
2018-07-09T09:32:00.813Z,14.50
2018-07-09T09:34:32.289Z,14.70
2018-07-09T09:37:04.089Z,14.60
2018-07-09T09:39:37.164Z,14.70
2018-07-09T09:42:08.929Z,14.70
2018-07-09T09:44:40.565Z,14.70
2018-07-09T09:47:12.469Z,14.70
2018-07-09T09:49:43.723Z,14.80
2018-07-09T09:52:15.148Z,14.80
2018-07-09T09:54:46.715Z,14.80
2018-07-09T09:57:17.756Z,14.80
2018-07-09T09:59:49.053Z,14.90
2018-07-09T10:02:20.438Z,14.90
2018-07-09T10:04:52.007Z,14.90
2018-07-09T10:07:23.533Z,15.00
2018-07-09T10:09:54.982Z,15.00
2018-07-09T10:12:26.440Z,15.00
2018-07-09T10:14:57.761Z,15.10
2018-07-09T10:17:28.763Z,15.20
2018-07-09T10:19:59.775Z,15.30
2018-07-09T10:22:30.921Z,15.40
2018-07-09T10:25:01.914Z,15.60
2018-07-09T10:27:33.118Z,15.60
2018-07-09T10:30:04.661Z,15.80
2018-07-09T10:32:35.956Z,15.90
2018-07-09T10:35:06.970Z,16.10
2018-07-09T10:37:38.320Z,16.20
2018-07-09T10:40:09.385Z,16.30
2018-07-09T10:42:40.812Z,16.50
2018-07-09T10:45:12.889Z,16.60
2018-07-09T10:47:44.745Z,16.70
2018-07-09T10:50:16.266Z,16.70
2018-07-09T10:52:47.710Z,16.90
2018-07-09T10:55:19.294Z,16.90
2018-07-09T10:57:50.790Z,17.10
2018-07-09T11:00:22.514Z,17.20
2018-07-09T11:02:54.059Z,17.30
2018-07-09T11:05:25.683Z,17.40
2018-07-09T11:07:57.437Z,17.50
2018-07-09T11:10:28.932Z,17.80
2018-07-09T11:13:00.598Z,18.10
2018-07-09T11:15:32.064Z,18.50
2018-07-09T11:18:03.689Z,18.60
2018-07-09T11:20:35.316Z,18.70
2018-07-09T11:23:07.273Z,18.80
2018-07-09T11:25:38.960Z,19.00
2018-07-09T11:28:10.685Z,19.10
2018-07-09T11:30:42.227Z,19.30
2018-07-09T11:35:45.045Z,19.70
2018-07-09T11:38:16.663Z,19.80
2018-07-09T11:40:48.426Z,19.90
2018-07-09T11:43:20.158Z,20.00
2018-07-09T11:45:51.662Z,20.10
2018-07-09T11:48:23.237Z,20.10
2018-07-09T11:50:54.591Z,20.50
2018-07-09T11:53:25.686Z,20.60
2018-07-09T11:55:57.119Z,20.70
2018-07-09T11:58:28.817Z,20.90
2018-07-09T12:01:00.553Z,20.90
2018-07-09T12:03:32.116Z,21.10
2018-07-09T12:06:03.797Z,21.00
2018-07-09T12:08:35.262Z,21.10
2018-07-09T12:11:06.555Z,21.10
2018-07-09T12:13:38.241Z,21.30
2018-07-09T12:16:09.964Z,21.40
2018-07-09T12:18:42.056Z,21.40
2018-07-09T12:21:13.761Z,21.50
2018-07-09T12:23:45.200Z,21.70
2018-07-09T12:28:47.508Z,21.90
2018-07-09T12:31:19.108Z,21.90
2018-07-09T12:33:51.225Z,21.90
2018-07-09T12:36:23.541Z,21.90
2018-07-09T12:38:55.041Z,22.00
2018-07-09T12:41:27.071Z,22.20
2018-07-09T12:43:58.585Z,22.40
2018-07-09T12:46:31.212Z,22.40
2018-07-09T12:49:03.229Z,22.60
2018-07-09T12:51:34.840Z,22.70
2018-07-09T12:54:06.079Z,22.70
2018-07-09T12:56:37.426Z,22.80
2018-07-09T12:59:08.741Z,23.00
2018-07-09T13:01:39.951Z,23.20
2018-07-09T13:04:11.668Z,23.20
2018-07-09T13:06:43.397Z,23.30
2018-07-09T13:09:14.675Z,23.40
2018-07-09T13:11:45.976Z,23.50
2018-07-09T13:14:17.150Z,23.70
2018-07-09T13:16:48.629Z,23.80
2018-07-09T13:19:20.393Z,23.90
2018-07-09T13:24:22.157Z,24.20
2018-07-09T13:26:53.497Z,24.30
2018-07-09T13:29:24.838Z,24.30
2018-07-09T13:31:56.194Z,24.30
2018-07-09T13:34:27.724Z,24.30
2018-07-09T13:36:59.112Z,24.40
2018-07-09T13:39:30.350Z,24.60
2018-07-09T13:42:01.592Z,24.70
2018-07-09T13:44:33.352Z,24.70
2018-07-09T13:47:04.456Z,24.70
2018-07-09T13:49:35.949Z,24.80
2018-07-09T13:52:07.155Z,25.00
2018-07-09T13:54:38.778Z,25.20
2018-07-09T13:57:10.084Z,25.30
2018-07-09T13:59:41.504Z,25.30
2018-07-09T14:02:12.646Z,25.20
2018-07-09T14:04:43.893Z,25.50
2018-07-09T14:07:15.514Z,25.50
2018-07-09T14:09:46.901Z,25.70
2018-07-09T14:12:18.414Z,25.70
2018-07-09T14:14:49.460Z,25.90
2018-07-09T14:17:21.008Z,25.90
2018-07-09T14:20:30.794Z,26.00
2018-07-09T14:23:02.873Z,26.00
2018-07-09T14:25:34.060Z,26.20
2018-07-09T14:28:05.716Z,26.20
2018-07-09T14:33:07.767Z,26.50
2018-07-09T14:35:39.006Z,26.60
2018-07-09T14:38:10.417Z,26.70
2018-07-09T14:40:41.628Z,26.80
2018-07-09T14:43:12.851Z,26.80
2018-07-09T14:45:44.283Z,27.00
2018-07-09T14:48:15.636Z,27.40
2018-07-09T14:50:46.840Z,27.30
2018-07-09T14:53:18.008Z,27.20
2018-07-09T14:55:48.956Z,27.30
2018-07-09T14:58:20.144Z,27.30
2018-07-09T15:00:51.484Z,27.30
2018-07-09T15:03:22.529Z,27.40
2018-07-09T15:05:53.791Z,27.50
2018-07-09T15:08:24.944Z,27.50
2018-07-09T15:10:56.589Z,27.60
2018-07-09T15:13:28.290Z,27.60
2018-07-09T15:15:59.952Z,27.80
2018-07-09T15:18:31.764Z,28.00
2018-07-09T15:21:03.408Z,27.80
2018-07-09T15:23:34.827Z,27.80
2018-07-09T15:26:06.609Z,28.10
2018-07-09T15:28:38.221Z,28.10
2018-07-09T15:31:09.369Z,28.10
2018-07-09T15:33:40.683Z,28.20
2018-07-09T15:36:12.193Z,28.30
2018-07-09T15:38:43.872Z,28.30
2018-07-09T15:41:15.681Z,28.40
2018-07-09T15:43:56.693Z,28.30
2018-07-09T15:46:28.410Z,28.20
2018-07-09T15:48:59.748Z,28.40
2018-07-09T15:51:31.603Z,28.50
2018-07-09T15:54:05.585Z,28.70
2018-07-09T15:56:36.809Z,28.70
2018-07-09T15:59:08.323Z,28.80
2018-07-09T16:01:39.449Z,28.80
2018-07-09T16:04:10.564Z,29.00
2018-07-09T16:06:41.692Z,28.90
2018-07-09T16:09:13.208Z,28.90
2018-07-09T16:11:44.309Z,28.90
2018-07-09T16:14:15.261Z,28.90
2018-07-09T16:16:46.544Z,28.90
2018-07-09T16:19:17.734Z,29.00
2018-07-09T16:24:19.437Z,29.20
2018-07-09T16:26:50.636Z,29.40
2018-07-09T16:29:21.796Z,29.70
2018-07-09T16:31:53.049Z,29.80
2018-07-09T16:34:24.665Z,29.80
2018-07-09T16:36:55.917Z,29.90
2018-07-09T16:39:26.966Z,29.90
2018-07-09T16:41:58.476Z,30.20
2018-07-09T16:44:29.470Z,30.60
2018-07-09T16:47:00.675Z,30.60
2018-07-09T16:49:31.909Z,30.70
2018-07-09T16:52:03.039Z,30.90
2018-07-09T16:54:34.397Z,30.90
2018-07-09T16:57:05.605Z,31.10
2018-07-09T16:59:36.993Z,31.50
2018-07-09T17:02:08.269Z,31.50
2018-07-09T17:04:39.486Z,31.50
2018-07-09T17:07:10.488Z,31.80
2018-07-09T17:09:41.509Z,31.90
2018-07-09T17:12:12.567Z,31.90
2018-07-09T17:14:43.553Z,32.60
2018-07-09T17:17:14.694Z,32.90
2018-07-09T17:19:45.988Z,32.60
2018-07-09T17:22:17.221Z,32.70
2018-07-09T17:24:48.278Z,32.10
2018-07-09T17:27:19.431Z,31.70
2018-07-09T17:29:50.501Z,31.80
2018-07-09T17:32:22.635Z,32.00
2018-07-09T17:34:53.928Z,32.20
2018-07-09T17:40:03.993Z,32.30
2018-07-09T17:42:35.225Z,32.40
2018-07-09T17:45:07.227Z,32.30
2018-07-09T17:47:38.786Z,32.70
2018-07-09T17:50:10.428Z,32.40
2018-07-09T17:52:41.836Z,33.10
2018-07-09T17:55:13.480Z,33.10
2018-07-09T17:57:44.944Z,33.00
2018-07-09T18:02:47.393Z,34.00
2018-07-09T18:05:18.640Z,33.70
2018-07-09T18:07:50.040Z,33.60
2018-07-09T18:10:21.965Z,33.20
2018-07-09T18:12:54.076Z,33.00
2018-07-09T18:15:25.764Z,33.00
2018-07-09T18:17:57.346Z,32.90
2018-07-09T18:20:28.641Z,32.80
2018-07-09T18:23:00.110Z,33.10
2018-07-09T18:25:31.976Z,32.70
2018-07-09T18:28:03.663Z,33.10
2018-07-09T18:30:35.336Z,32.90
2018-07-09T18:33:06.810Z,33.00
2018-07-09T18:35:38.523Z,32.90
2018-07-09T18:38:10.181Z,33.00
2018-07-09T18:40:41.831Z,33.60
2018-07-09T18:43:13.971Z,33.70
2018-07-09T18:45:45.297Z,34.00
2018-07-09T18:48:16.630Z,33.70
2018-07-09T18:50:48.080Z,33.70
2018-07-09T18:53:19.450Z,33.60
2018-07-09T18:55:50.922Z,32.80
2018-07-09T18:58:22.370Z,32.80
2018-07-09T19:00:54.001Z,33.40
2018-07-09T19:03:25.585Z,33.10
2018-07-09T19:07:15.827Z,32.80
2018-07-09T19:09:47.258Z,33.10
2018-07-09T19:14:49.808Z,33.00
2018-07-09T19:18:30.771Z,33.20
2018-07-09T19:21:43.506Z,33.40
2018-07-09T19:24:13.423Z,33.70
2018-07-09T19:26:42.741Z,33.60
2018-07-09T19:29:11.705Z,33.40
2018-07-09T19:31:40.672Z,33.80
2018-07-09T19:34:09.732Z,34.40
2018-07-09T19:36:38.759Z,34.00
2018-07-09T19:39:08.468Z,34.30
2018-07-09T19:41:37.515Z,34.40
2018-07-09T19:44:21.337Z,33.90
2018-07-09T19:46:50.317Z,33.80
2018-07-09T19:49:19.284Z,33.80
2018-07-09T19:51:47.976Z,34.00
2018-07-09T19:54:17.080Z,34.30
2018-07-09T19:56:46.105Z,34.00
2018-07-09T19:59:15.089Z,33.40
2018-07-09T20:01:44.077Z,33.60
2018-07-09T20:04:13.106Z,33.40
2018-07-09T20:06:41.853Z,33.60
2018-07-09T20:09:15.199Z,33.30
2018-07-09T20:11:48.523Z,33.30
2018-07-09T20:14:21.934Z,33.40
2018-07-09T20:16:55.271Z,33.30
2018-07-09T20:19:24.004Z,33.30
2018-07-09T20:21:52.873Z,33.50
2018-07-09T20:24:21.533Z,33.40
2018-07-09T20:26:50.261Z,33.20
2018-07-09T20:29:19.277Z,33.30
2018-07-09T20:35:08.544Z,33.20
2018-07-09T20:41:19.877Z,33.00
2018-07-09T20:47:09.176Z,32.60
